sensor_id;sensor_type;location;lat;lon;timestamp;temperature;humidity
5621;DHT22;2832;50.864;12.186;2023-04-02T00:01:16;12.80;99.90
5621;DHT22;2832;50.864;12.186;2023-04-02T00:04:17;12.60;99.90
5621;DHT22;2832;50.864;12.186;2023-04-02T00:06:56;12.60;99.90
5621;DHT22;2832;50.864;12.186;2023-04-02T00:09:49;12.50;99.90
5621;DHT22;2832;50.864;12.186;2023-04-02T00:12:28;12.60;99.90
5621;DHT22;2832;50.864;12.186;2023-04-02T00:15:00;12.60;99.90
5621;DHT22;2832;50.864;12.186;2023-04-02T00:17:37;12.60;99.90
5621;DHT22;2832;50.864;12.186;2023-04-02T00:20:15;12.60;99.90
5621;DHT22;2832;50.864;12.186;2023-04-02T00:22:55;12.70;99.90
5621;DHT22;2832;50.864;12.186;2023-04-02T00:25:35;12.70;99.90
5621;DHT22;2832;50.864;12.186;2023-04-02T00:28:17;12.80;99.90
5621;DHT22;2832;50.864;12.186;2023-04-02T00:30:58;12.90;99.90
5621;DHT22;2832;50.864;12.186;2023-04-02T00:33:37;12.70;99.90
5621;DHT22;2832;50.864;12.186;2023-04-02T00:36:09;12.80;99.90
5621;DHT22;2832;50.864;12.186;2023-04-02T00:38:42;12.60;99.90
5621;DHT22;2832;50.864;12.186;2023-04-02T00:41:15;12.60;99.90
5621;DHT22;2832;50.864;12.186;2023-04-02T00:43:52;12.70;99.90
5621;DHT22;2832;50.864;12.186;2023-04-02T00:46:30;12.70;99.90
5621;DHT22;2832;50.864;12.186;2023-04-02T00:49:07;12.70;99.90
5621;DHT22;2832;50.864;12.186;2023-04-02T00:51:45;12.70;99.90
5621;DHT22;2832;50.864;12.186;2023-04-02T00:54:36;12.80;99.90
5621;DHT22;2832;50.864;12.186;2023-04-02T00:57:14;12.70;99.90
5621;DHT22;2832;50.864;12.186;2023-04-02T00:59:56;12.70;99.90
5621;DHT22;2832;50.864;12.186;2023-04-02T01:02:31;12.70;99.90
5621;DHT22;2832;50.864;12.186;2023-04-02T01:05:20;12.60;99.90
5621;DHT22;2832;50.864;12.186;2023-04-02T01:08:02;12.70;99.90
5621;DHT22;2832;50.864;12.186;2023-04-02T01:10:57;12.70;99.90
5621;DHT22;2832;50.864;12.186;2023-04-02T01:13:39;12.80;99.90
5621;DHT22;2832;50.864;12.186;2023-04-02T01:16:19;12.90;99.90
5621;DHT22;2832;50.864;12.186;2023-04-02T01:18:55;12.90;99.90
5621;DHT22;2832;50.864;12.186;2023-04-02T01:21:51;13.00;99.90
5621;DHT22;2832;50.864;12.186;2023-04-02T01:24:29;13.00;99.90
5621;DHT22;2832;50.864;12.186;2023-04-02T01:27:03;13.10;99.90
5621;DHT22;2832;50.864;12.186;2023-04-02T01:29:42;13.10;99.90
5621;DHT22;2832;50.864;12.186;2023-04-02T01:32:20;13.00;99.90
5621;DHT22;2832;50.864;12.186;2023-04-02T01:34:50;12.80;99.90
5621;DHT22;2832;50.864;12.186;2023-04-02T01:37:34;12.70;99.90
5621;DHT22;2832;50.864;12.186;2023-04-02T01:40:16;12.70;99.90
5621;DHT22;2832;50.864;12.186;2023-04-02T01:42:57;12.70;99.90
5621;DHT22;2832;50.864;12.186;2023-04-02T01:45:41;12.80;99.90
5621;DHT22;2832;50.864;12.186;2023-04-02T01:48:25;12.50;99.90
5621;DHT22;2832;50.864;12.186;2023-04-02T01:51:06;12.60;99.90
5621;DHT22;2832;50.864;12.186;2023-04-02T01:53:36;12.70;99.90
5621;DHT22;2832;50.864;12.186;2023-04-02T01:56:11;12.70;99.90
5621;DHT22;2832;50.864;12.186;2023-04-02T01:58:45;12.70;99.90
5621;DHT22;2832;50.864;12.186;2023-04-02T02:01:21;12.60;99.90
5621;DHT22;2832;50.864;12.186;2023-04-02T02:03:55;12.60;99.90
5621;DHT22;2832;50.864;12.186;2023-04-02T02:06:29;12.50;99.90
5621;DHT22;2832;50.864;12.186;2023-04-02T02:09:00;12.50;99.90
5621;DHT22;2832;50.864;12.186;2023-04-02T02:11:33;12.30;99.90
5621;DHT22;2832;50.864;12.186;2023-04-02T02:14:13;12.20;99.90
5621;DHT22;2832;50.864;12.186;2023-04-02T02:16:47;12.30;99.90
5621;DHT22;2832;50.864;12.186;2023-04-02T02:19:27;12.40;99.90
5621;DHT22;2832;50.864;12.186;2023-04-02T02:22:08;12.50;99.90
5621;DHT22;2832;50.864;12.186;2023-04-02T02:24:45;12.50;99.90
5621;DHT22;2832;50.864;12.186;2023-04-02T02:27:54;12.30;99.90
5621;DHT22;2832;50.864;12.186;2023-04-02T02:30:33;12.40;99.90
5621;DHT22;2832;50.864;12.186;2023-04-02T02:33:12;12.40;99.90
5621;DHT22;2832;50.864;12.186;2023-04-02T02:35:49;12.50;99.90
5621;DHT22;2832;50.864;12.186;2023-04-02T02:38:59;12.50;99.90
5621;DHT22;2832;50.864;12.186;2023-04-02T02:41:36;12.60;99.90
5621;DHT22;2832;50.864;12.186;2023-04-02T02:44:16;12.30;99.90
5621;DHT22;2832;50.864;12.186;2023-04-02T02:46:52;12.30;99.90
5621;DHT22;2832;50.864;12.186;2023-04-02T02:49:31;12.20;99.90
5621;DHT22;2832;50.864;12.186;2023-04-02T02:52:12;12.20;99.90
5621;DHT22;2832;50.864;12.186;2023-04-02T02:55:01;12.30;99.90
5621;DHT22;2832;50.864;12.186;2023-04-02T02:57:37;12.30;99.90
5621;DHT22;2832;50.864;12.186;2023-04-02T03:00:13;12.10;99.90
5621;DHT22;2832;50.864;12.186;2023-04-02T03:02:45;12.00;99.90
5621;DHT22;2832;50.864;12.186;2023-04-02T03:05:23;12.10;99.90
5621;DHT22;2832;50.864;12.186;2023-04-02T03:07:59;12.20;99.90
5621;DHT22;2832;50.864;12.186;2023-04-02T03:10:38;12.30;99.90
5621;DHT22;2832;50.864;12.186;2023-04-02T03:13:21;12.30;99.90
5621;DHT22;2832;50.864;12.186;2023-04-02T03:15:57;12.40;99.90
5621;DHT22;2832;50.864;12.186;2023-04-02T03:18:38;12.40;99.90
5621;DHT22;2832;50.864;12.186;2023-04-02T03:21:21;12.40;99.90
5621;DHT22;2832;50.864;12.186;2023-04-02T03:23:55;12.30;99.90
5621;DHT22;2832;50.864;12.186;2023-04-02T03:26:34;12.10;99.90
5621;DHT22;2832;50.864;12.186;2023-04-02T03:29:15;12.00;99.90
5621;DHT22;2832;50.864;12.186;2023-04-02T03:31:56;12.00;99.90
5621;DHT22;2832;50.864;12.186;2023-04-02T03:34:36;11.80;99.90
5621;DHT22;2832;50.864;12.186;2023-04-02T03:37:17;11.70;99.90
5621;DHT22;2832;50.864;12.186;2023-04-02T03:39:57;11.80;99.90
5621;DHT22;2832;50.864;12.186;2023-04-02T03:42:38;11.70;99.90
5621;DHT22;2832;50.864;12.186;2023-04-02T03:45:18;11.80;99.90
5621;DHT22;2832;50.864;12.186;2023-04-02T03:48:02;11.90;99.90
5621;DHT22;2832;50.864;12.186;2023-04-02T03:50:36;12.00;99.90
5621;DHT22;2832;50.864;12.186;2023-04-02T03:53:12;11.60;99.90
5621;DHT22;2832;50.864;12.186;2023-04-02T03:55:48;11.70;99.90
5621;DHT22;2832;50.864;12.186;2023-04-02T03:58:32;11.60;99.90
5621;DHT22;2832;50.864;12.186;2023-04-02T04:01:17;11.80;99.90
5621;DHT22;2832;50.864;12.186;2023-04-02T04:03:54;11.40;99.90
5621;DHT22;2832;50.864;12.186;2023-04-02T04:06:30;11.20;99.90
5621;DHT22;2832;50.864;12.186;2023-04-02T04:09:10;11.10;99.90
5621;DHT22;2832;50.864;12.186;2023-04-02T04:11:45;11.40;99.90
5621;DHT22;2832;50.864;12.186;2023-04-02T04:14:19;11.50;99.90
5621;DHT22;2832;50.864;12.186;2023-04-02T04:16:57;11.60;99.90
5621;DHT22;2832;50.864;12.186;2023-04-02T04:19:37;11.70;99.90
5621;DHT22;2832;50.864;12.186;2023-04-02T04:22:15;11.70;99.90
5621;DHT22;2832;50.864;12.186;2023-04-02T04:24:51;11.80;99.90
5621;DHT22;2832;50.864;12.186;2023-04-02T04:27:27;11.80;99.90
5621;DHT22;2832;50.864;12.186;2023-04-02T04:30:04;11.90;99.90
5621;DHT22;2832;50.864;12.186;2023-04-02T04:32:38;11.90;99.90
5621;DHT22;2832;50.864;12.186;2023-04-02T04:35:27;11.60;99.90
5621;DHT22;2832;50.864;12.186;2023-04-02T04:38:01;11.60;99.90
5621;DHT22;2832;50.864;12.186;2023-04-02T04:40:42;11.30;99.90
5621;DHT22;2832;50.864;12.186;2023-04-02T04:43:28;11.30;99.90
5621;DHT22;2832;50.864;12.186;2023-04-02T04:46:09;11.50;99.90
5621;DHT22;2832;50.864;12.186;2023-04-02T04:48:49;11.30;99.90
5621;DHT22;2832;50.864;12.186;2023-04-02T04:51:27;11.20;99.90
5621;DHT22;2832;50.864;12.186;2023-04-02T04:54:03;11.30;99.90
5621;DHT22;2832;50.864;12.186;2023-04-02T04:56:38;11.40;99.90
5621;DHT22;2832;50.864;12.186;2023-04-02T04:59:17;11.50;99.90
5621;DHT22;2832;50.864;12.186;2023-04-02T05:02:00;11.40;99.90
5621;DHT22;2832;50.864;12.186;2023-04-02T05:04:36;11.50;99.90
5621;DHT22;2832;50.864;12.186;2023-04-02T05:07:16;11.50;99.90
5621;DHT22;2832;50.864;12.186;2023-04-02T05:09:52;11.50;99.90
5621;DHT22;2832;50.864;12.186;2023-04-02T05:12:31;11.50;99.90
5621;DHT22;2832;50.864;12.186;2023-04-02T05:15:13;11.60;99.90
5621;DHT22;2832;50.864;12.186;2023-04-02T05:17:49;11.60;99.90
5621;DHT22;2832;50.864;12.186;2023-04-02T05:20:33;11.70;99.90
5621;DHT22;2832;50.864;12.186;2023-04-02T05:23:14;11.80;99.90
5621;DHT22;2832;50.864;12.186;2023-04-02T05:25:51;11.70;99.90
5621;DHT22;2832;50.864;12.186;2023-04-02T05:28:28;11.60;99.90
5621;DHT22;2832;50.864;12.186;2023-04-02T05:31:02;11.70;99.90
5621;DHT22;2832;50.864;12.186;2023-04-02T05:33:38;11.70;99.90
5621;DHT22;2832;50.864;12.186;2023-04-02T05:36:19;11.70;99.90
5621;DHT22;2832;50.864;12.186;2023-04-02T05:38:55;11.70;99.90
5621;DHT22;2832;50.864;12.186;2023-04-02T05:41:30;11.70;99.90
5621;DHT22;2832;50.864;12.186;2023-04-02T05:44:14;11.80;99.90
5621;DHT22;2832;50.864;12.186;2023-04-02T05:46:55;11.70;99.90
5621;DHT22;2832;50.864;12.186;2023-04-02T05:49:31;11.40;99.90
5621;DHT22;2832;50.864;12.186;2023-04-02T05:52:10;11.10;99.90
5621;DHT22;2832;50.864;12.186;2023-04-02T05:54:55;11.00;99.90
5621;DHT22;2832;50.864;12.186;2023-04-02T05:57:34;11.20;99.90
5621;DHT22;2832;50.864;12.186;2023-04-02T06:00:23;11.30;99.90
5621;DHT22;2832;50.864;12.186;2023-04-02T06:02:57;11.10;99.90
5621;DHT22;2832;50.864;12.186;2023-04-02T06:05:41;11.20;99.90
5621;DHT22;2832;50.864;12.186;2023-04-02T06:08:23;11.30;99.90
5621;DHT22;2832;50.864;12.186;2023-04-02T06:11:05;11.40;99.90
5621;DHT22;2832;50.864;12.186;2023-04-02T06:14:11;11.40;99.90
5621;DHT22;2832;50.864;12.186;2023-04-02T06:19:20;11.50;99.90
5621;DHT22;2832;50.864;12.186;2023-04-02T06:21:59;11.60;99.90
5621;DHT22;2832;50.864;12.186;2023-04-02T06:24:47;11.50;99.90
5621;DHT22;2832;50.864;12.186;2023-04-02T06:27:21;11.50;99.90
5621;DHT22;2832;50.864;12.186;2023-04-02T06:30:03;11.30;99.90
5621;DHT22;2832;50.864;12.186;2023-04-02T06:32:35;11.10;99.90
5621;DHT22;2832;50.864;12.186;2023-04-02T06:35:16;11.20;99.90
5621;DHT22;2832;50.864;12.186;2023-04-02T06:37:50;11.20;99.90
5621;DHT22;2832;50.864;12.186;2023-04-02T06:40:32;11.10;99.90
5621;DHT22;2832;50.864;12.186;2023-04-02T06:43:15;11.00;99.90
5621;DHT22;2832;50.864;12.186;2023-04-02T06:45:53;11.10;99.90
5621;DHT22;2832;50.864;12.186;2023-04-02T06:48:25;11.20;99.90
5621;DHT22;2832;50.864;12.186;2023-04-02T06:51:02;11.30;99.90
5621;DHT22;2832;50.864;12.186;2023-04-02T06:53:42;11.30;99.90
5621;DHT22;2832;50.864;12.186;2023-04-02T06:56:22;11.20;99.90
5621;DHT22;2832;50.864;12.186;2023-04-02T06:59:05;11.30;99.90
5621;DHT22;2832;50.864;12.186;2023-04-02T07:01:47;11.30;99.90
5621;DHT22;2832;50.864;12.186;2023-04-02T07:04:25;11.30;99.90
5621;DHT22;2832;50.864;12.186;2023-04-02T07:07:04;11.40;99.90
5621;DHT22;2832;50.864;12.186;2023-04-02T07:09:34;11.10;99.90
5621;DHT22;2832;50.864;12.186;2023-04-02T07:12:22;11.10;99.90
5621;DHT22;2832;50.864;12.186;2023-04-02T07:14:53;10.80;99.90
5621;DHT22;2832;50.864;12.186;2023-04-02T07:17:30;10.50;99.90
5621;DHT22;2832;50.864;12.186;2023-04-02T07:20:04;10.40;99.90
5621;DHT22;2832;50.864;12.186;2023-04-02T07:22:33;10.30;99.90
5621;DHT22;2832;50.864;12.186;2023-04-02T07:25:12;10.20;99.90
5621;DHT22;2832;50.864;12.186;2023-04-02T07:27:41;9.90;99.90
5621;DHT22;2832;50.864;12.186;2023-04-02T07:30:20;10.10;99.90
5621;DHT22;2832;50.864;12.186;2023-04-02T07:32:53;10.10;99.90
5621;DHT22;2832;50.864;12.186;2023-04-02T07:35:28;10.10;99.90
5621;DHT22;2832;50.864;12.186;2023-04-02T07:38:05;10.40;99.90
5621;DHT22;2832;50.864;12.186;2023-04-02T07:40:41;10.50;99.90
5621;DHT22;2832;50.864;12.186;2023-04-02T07:43:13;10.60;99.90
5621;DHT22;2832;50.864;12.186;2023-04-02T07:45:42;10.70;99.90
5621;DHT22;2832;50.864;12.186;2023-04-02T07:48:17;10.80;99.90
5621;DHT22;2832;50.864;12.186;2023-04-02T07:50:54;10.70;99.90
5621;DHT22;2832;50.864;12.186;2023-04-02T07:53:31;10.70;99.90
5621;DHT22;2832;50.864;12.186;2023-04-02T07:56:14;10.80;99.90
5621;DHT22;2832;50.864;12.186;2023-04-02T07:58:53;10.90;99.90
5621;DHT22;2832;50.864;12.186;2023-04-02T08:01:32;10.90;99.90
5621;DHT22;2832;50.864;12.186;2023-04-02T08:04:16;10.80;99.90
5621;DHT22;2832;50.864;12.186;2023-04-02T08:06:55;10.70;99.90
5621;DHT22;2832;50.864;12.186;2023-04-02T08:09:34;10.70;99.90
5621;DHT22;2832;50.864;12.186;2023-04-02T08:12:12;10.70;99.90
5621;DHT22;2832;50.864;12.186;2023-04-02T08:14:49;10.10;99.90
5621;DHT22;2832;50.864;12.186;2023-04-02T08:17:26;10.20;99.90
5621;DHT22;2832;50.864;12.186;2023-04-02T08:19:59;10.30;99.90
5621;DHT22;2832;50.864;12.186;2023-04-02T08:22:32;10.30;99.90
5621;DHT22;2832;50.864;12.186;2023-04-02T08:25:04;10.30;99.90
5621;DHT22;2832;50.864;12.186;2023-04-02T08:27:37;10.30;99.90
5621;DHT22;2832;50.864;12.186;2023-04-02T08:30:09;10.20;99.90
5621;DHT22;2832;50.864;12.186;2023-04-02T08:32:45;10.30;99.90
5621;DHT22;2832;50.864;12.186;2023-04-02T08:35:25;10.30;99.90
5621;DHT22;2832;50.864;12.186;2023-04-02T08:38:15;10.30;99.90
5621;DHT22;2832;50.864;12.186;2023-04-02T08:40:50;10.40;99.90
5621;DHT22;2832;50.864;12.186;2023-04-02T08:43:43;10.20;99.90
5621;DHT22;2832;50.864;12.186;2023-04-02T08:46:37;10.30;99.90
5621;DHT22;2832;50.864;12.186;2023-04-02T08:49:25;10.20;99.90
5621;DHT22;2832;50.864;12.186;2023-04-02T08:52:03;10.30;99.90
5621;DHT22;2832;50.864;12.186;2023-04-02T08:54:36;10.40;99.90
5621;DHT22;2832;50.864;12.186;2023-04-02T08:57:21;10.40;99.90
5621;DHT22;2832;50.864;12.186;2023-04-02T09:00:04;10.00;99.90
5621;DHT22;2832;50.864;12.186;2023-04-02T09:02:40;10.20;99.90
5621;DHT22;2832;50.864;12.186;2023-04-02T09:05:27;10.00;99.90
5621;DHT22;2832;50.864;12.186;2023-04-02T09:08:00;10.00;99.90
5621;DHT22;2832;50.864;12.186;2023-04-02T09:10:41;10.20;99.90
5621;DHT22;2832;50.864;12.186;2023-04-02T09:13:17;10.10;99.90
5621;DHT22;2832;50.864;12.186;2023-04-02T09:16:05;10.10;99.90
5621;DHT22;2832;50.864;12.186;2023-04-02T09:18:44;10.00;99.90
5621;DHT22;2832;50.864;12.186;2023-04-02T09:21:24;9.70;99.90
5621;DHT22;2832;50.864;12.186;2023-04-02T09:24:03;9.60;99.90
5621;DHT22;2832;50.864;12.186;2023-04-02T09:26:36;9.50;99.90
5621;DHT22;2832;50.864;12.186;2023-04-02T09:29:39;9.70;99.90
5621;DHT22;2832;50.864;12.186;2023-04-02T09:32:42;9.80;99.90
5621;DHT22;2832;50.864;12.186;2023-04-02T09:35:21;9.60;99.90
5621;DHT22;2832;50.864;12.186;2023-04-02T09:38:14;9.70;99.90
5621;DHT22;2832;50.864;12.186;2023-04-02T09:40:55;9.50;99.90
5621;DHT22;2832;50.864;12.186;2023-04-02T09:43:32;9.30;99.90
5621;DHT22;2832;50.864;12.186;2023-04-02T09:46:05;9.50;99.90
5621;DHT22;2832;50.864;12.186;2023-04-02T09:48:48;9.20;99.90
5621;DHT22;2832;50.864;12.186;2023-04-02T09:51:23;9.30;99.90
5621;DHT22;2832;50.864;12.186;2023-04-02T09:54:06;9.40;99.90
5621;DHT22;2832;50.864;12.186;2023-04-02T09:56:44;9.60;99.90
5621;DHT22;2832;50.864;12.186;2023-04-02T09:59:33;9.60;99.90
5621;DHT22;2832;50.864;12.186;2023-04-02T10:02:24;9.70;99.90
5621;DHT22;2832;50.864;12.186;2023-04-02T10:05:03;9.80;99.90
5621;DHT22;2832;50.864;12.186;2023-04-02T10:07:41;9.70;99.90
5621;DHT22;2832;50.864;12.186;2023-04-02T10:10:28;9.70;99.90
5621;DHT22;2832;50.864;12.186;2023-04-02T10:13:07;9.70;99.90
5621;DHT22;2832;50.864;12.186;2023-04-02T10:15:52;9.80;99.90
5621;DHT22;2832;50.864;12.186;2023-04-02T10:18:32;9.90;99.90
5621;DHT22;2832;50.864;12.186;2023-04-02T10:21:06;10.00;99.90
5621;DHT22;2832;50.864;12.186;2023-04-02T10:23:38;10.10;99.90
5621;DHT22;2832;50.864;12.186;2023-04-02T10:26:54;10.20;99.90
5621;DHT22;2832;50.864;12.186;2023-04-02T10:30:04;10.10;99.90
5621;DHT22;2832;50.864;12.186;2023-04-02T10:32:49;9.90;99.90
5621;DHT22;2832;50.864;12.186;2023-04-02T10:35:39;9.70;99.90
5621;DHT22;2832;50.864;12.186;2023-04-02T10:38:26;9.80;99.90
5621;DHT22;2832;50.864;12.186;2023-04-02T10:41:10;9.80;99.90
5621;DHT22;2832;50.864;12.186;2023-04-02T10:44:10;9.40;99.90
5621;DHT22;2832;50.864;12.186;2023-04-02T10:47:02;9.50;99.90
5621;DHT22;2832;50.864;12.186;2023-04-02T10:49:48;9.50;99.90
5621;DHT22;2832;50.864;12.186;2023-04-02T10:52:29;9.20;99.90
5621;DHT22;2832;50.864;12.186;2023-04-02T10:55:15;9.30;99.90
5621;DHT22;2832;50.864;12.186;2023-04-02T10:58:06;9.40;99.90
5621;DHT22;2832;50.864;12.186;2023-04-02T11:00:44;9.30;99.90
5621;DHT22;2832;50.864;12.186;2023-04-02T11:03:28;9.30;99.90
5621;DHT22;2832;50.864;12.186;2023-04-02T11:06:16;9.50;99.90
5621;DHT22;2832;50.864;12.186;2023-04-02T11:08:52;9.50;99.90
5621;DHT22;2832;50.864;12.186;2023-04-02T11:11:38;9.50;99.90
5621;DHT22;2832;50.864;12.186;2023-04-02T11:14:24;9.60;99.90
5621;DHT22;2832;50.864;12.186;2023-04-02T11:16:54;9.70;99.90
5621;DHT22;2832;50.864;12.186;2023-04-02T11:19:43;9.80;99.90
5621;DHT22;2832;50.864;12.186;2023-04-02T11:22:22;9.80;99.90
5621;DHT22;2832;50.864;12.186;2023-04-02T11:25:03;9.90;99.90
5621;DHT22;2832;50.864;12.186;2023-04-02T11:27:47;9.90;99.90
5621;DHT22;2832;50.864;12.186;2023-04-02T11:30:24;9.90;99.90
5621;DHT22;2832;50.864;12.186;2023-04-02T11:39:51;9.60;99.90
5621;DHT22;2832;50.864;12.186;2023-04-02T11:42:33;9.60;99.90
5621;DHT22;2832;50.864;12.186;2023-04-02T11:48:29;9.60;99.90
5621;DHT22;2832;50.864;12.186;2023-04-02T11:51:14;9.60;99.90
5621;DHT22;2832;50.864;12.186;2023-04-02T11:54:22;9.40;99.90
5621;DHT22;2832;50.864;12.186;2023-04-02T11:57:11;9.20;99.90
5621;DHT22;2832;50.864;12.186;2023-04-02T12:00:18;8.90;99.90
5621;DHT22;2832;50.864;12.186;2023-04-02T12:03:17;9.10;99.90
5621;DHT22;2832;50.864;12.186;2023-04-02T12:05:55;9.20;99.90
5621;DHT22;2832;50.864;12.186;2023-04-02T12:08:42;9.40;99.90
5621;DHT22;2832;50.864;12.186;2023-04-02T12:11:31;9.10;99.90
5621;DHT22;2832;50.864;12.186;2023-04-02T12:14:27;9.30;99.90
5621;DHT22;2832;50.864;12.186;2023-04-02T12:17:02;9.40;99.90
5621;DHT22;2832;50.864;12.186;2023-04-02T12:19:48;9.30;99.90
5621;DHT22;2832;50.864;12.186;2023-04-02T12:22:32;9.10;99.90
5621;DHT22;2832;50.864;12.186;2023-04-02T12:25:22;9.10;99.90
5621;DHT22;2832;50.864;12.186;2023-04-02T12:28:14;9.20;99.90
5621;DHT22;2832;50.864;12.186;2023-04-02T12:31:02;8.90;99.90
5621;DHT22;2832;50.864;12.186;2023-04-02T12:33:43;8.80;99.90
5621;DHT22;2832;50.864;12.186;2023-04-02T12:36:20;8.60;99.90
5621;DHT22;2832;50.864;12.186;2023-04-02T12:38:59;8.60;99.90
5621;DHT22;2832;50.864;12.186;2023-04-02T12:41:29;8.80;99.90
5621;DHT22;2832;50.864;12.186;2023-04-02T12:44:13;8.90;99.90
5621;DHT22;2832;50.864;12.186;2023-04-02T12:46:51;8.90;99.90
5621;DHT22;2832;50.864;12.186;2023-04-02T12:49:35;8.90;99.90
5621;DHT22;2832;50.864;12.186;2023-04-02T12:52:16;8.70;99.90
5621;DHT22;2832;50.864;12.186;2023-04-02T12:54:52;8.70;99.90
5621;DHT22;2832;50.864;12.186;2023-04-02T12:57:37;8.80;99.90
5621;DHT22;2832;50.864;12.186;2023-04-02T13:00:34;8.70;99.90
5621;DHT22;2832;50.864;12.186;2023-04-02T13:03:20;8.80;99.90
5621;DHT22;2832;50.864;12.186;2023-04-02T13:06:19;8.80;99.90
5621;DHT22;2832;50.864;12.186;2023-04-02T13:08:58;9.00;99.90
5621;DHT22;2832;50.864;12.186;2023-04-02T13:11:39;9.00;99.90
5621;DHT22;2832;50.864;12.186;2023-04-02T13:14:18;9.20;99.90
5621;DHT22;2832;50.864;12.186;2023-04-02T13:16:54;9.20;99.90
5621;DHT22;2832;50.864;12.186;2023-04-02T13:19:31;9.10;99.90
5621;DHT22;2832;50.864;12.186;2023-04-02T13:22:29;9.20;99.90
5621;DHT22;2832;50.864;12.186;2023-04-02T13:25:00;9.20;99.90
5621;DHT22;2832;50.864;12.186;2023-04-02T13:27:31;9.00;99.90
5621;DHT22;2832;50.864;12.186;2023-04-02T13:30:07;8.90;99.90
5621;DHT22;2832;50.864;12.186;2023-04-02T13:32:40;9.00;99.90
5621;DHT22;2832;50.864;12.186;2023-04-02T13:35:22;9.10;99.90
5621;DHT22;2832;50.864;12.186;2023-04-02T13:37:53;9.20;99.90
5621;DHT22;2832;50.864;12.186;2023-04-02T13:40:28;9.00;99.90
5621;DHT22;2832;50.864;12.186;2023-04-02T13:42:59;9.10;99.90
5621;DHT22;2832;50.864;12.186;2023-04-02T13:45:32;9.20;99.90
5621;DHT22;2832;50.864;12.186;2023-04-02T13:48:12;9.40;99.90
5621;DHT22;2832;50.864;12.186;2023-04-02T13:50:48;9.40;99.90
5621;DHT22;2832;50.864;12.186;2023-04-02T13:53:27;9.50;99.90
5621;DHT22;2832;50.864;12.186;2023-04-02T13:56:04;9.60;99.90
5621;DHT22;2832;50.864;12.186;2023-04-02T13:58:34;9.60;99.90
5621;DHT22;2832;50.864;12.186;2023-04-02T14:01:12;9.60;99.90
5621;DHT22;2832;50.864;12.186;2023-04-02T14:03:43;9.70;99.90
5621;DHT22;2832;50.864;12.186;2023-04-02T14:06:23;9.70;99.90
5621;DHT22;2832;50.864;12.186;2023-04-02T14:09:07;9.70;99.90
5621;DHT22;2832;50.864;12.186;2023-04-02T14:11:50;9.60;99.90
5621;DHT22;2832;50.864;12.186;2023-04-02T14:14:44;9.60;99.90
5621;DHT22;2832;50.864;12.186;2023-04-02T14:17:30;9.40;99.90
5621;DHT22;2832;50.864;12.186;2023-04-02T14:20:20;9.40;99.90
5621;DHT22;2832;50.864;12.186;2023-04-02T14:23:22;9.30;99.90
5621;DHT22;2832;50.864;12.186;2023-04-02T14:26:13;9.40;99.90
5621;DHT22;2832;50.864;12.186;2023-04-02T14:28:57;9.50;99.90
5621;DHT22;2832;50.864;12.186;2023-04-02T14:32:01;9.50;99.90
5621;DHT22;2832;50.864;12.186;2023-04-02T14:34:51;9.50;99.90
5621;DHT22;2832;50.864;12.186;2023-04-02T14:37:35;9.40;99.90
5621;DHT22;2832;50.864;12.186;2023-04-02T14:40:25;9.40;99.90
5621;DHT22;2832;50.864;12.186;2023-04-02T14:43:07;9.40;99.90
5621;DHT22;2832;50.864;12.186;2023-04-02T14:45:57;9.20;99.90
5621;DHT22;2832;50.864;12.186;2023-04-02T14:48:46;8.80;99.90
5621;DHT22;2832;50.864;12.186;2023-04-02T14:51:33;8.90;99.90
5621;DHT22;2832;50.864;12.186;2023-04-02T14:54:14;8.90;99.90
5621;DHT22;2832;50.864;12.186;2023-04-02T14:57:03;8.80;99.90
5621;DHT22;2832;50.864;12.186;2023-04-02T14:59:41;8.70;99.90
5621;DHT22;2832;50.864;12.186;2023-04-02T15:02:33;8.70;99.90
5621;DHT22;2832;50.864;12.186;2023-04-02T15:05:16;8.70;99.90
5621;DHT22;2832;50.864;12.186;2023-04-02T15:08:01;8.80;99.90
5621;DHT22;2832;50.864;12.186;2023-04-02T15:10:52;8.60;99.90
5621;DHT22;2832;50.864;12.186;2023-04-02T15:13:37;8.80;99.90
5621;DHT22;2832;50.864;12.186;2023-04-02T15:16:16;8.90;99.90
5621;DHT22;2832;50.864;12.186;2023-04-02T15:19:07;8.90;99.90
5621;DHT22;2832;50.864;12.186;2023-04-02T15:25:16;8.80;99.90
5621;DHT22;2832;50.864;12.186;2023-04-02T15:28:07;8.80;99.90
5621;DHT22;2832;50.864;12.186;2023-04-02T15:31:02;8.80;99.90
5621;DHT22;2832;50.864;12.186;2023-04-02T15:33:50;8.90;99.90
5621;DHT22;2832;50.864;12.186;2023-04-02T15:36:45;9.00;99.90
5621;DHT22;2832;50.864;12.186;2023-04-02T15:42:40;9.00;99.90
5621;DHT22;2832;50.864;12.186;2023-04-02T15:45:38;9.00;99.90
5621;DHT22;2832;50.864;12.186;2023-04-02T15:48:29;9.00;99.90
5621;DHT22;2832;50.864;12.186;2023-04-02T15:51:23;8.80;99.90
5621;DHT22;2832;50.864;12.186;2023-04-02T15:54:17;8.70;99.90
5621;DHT22;2832;50.864;12.186;2023-04-02T15:57:17;8.90;99.90
5621;DHT22;2832;50.864;12.186;2023-04-02T16:00:24;9.00;99.90
5621;DHT22;2832;50.864;12.186;2023-04-02T16:03:30;9.10;99.90
5621;DHT22;2832;50.864;12.186;2023-04-02T16:06:26;9.10;99.90
5621;DHT22;2832;50.864;12.186;2023-04-02T16:09:13;9.00;99.90
5621;DHT22;2832;50.864;12.186;2023-04-02T16:12:09;9.10;99.90
5621;DHT22;2832;50.864;12.186;2023-04-02T16:14:47;8.90;99.90
5621;DHT22;2832;50.864;12.186;2023-04-02T16:17:18;8.70;99.90
5621;DHT22;2832;50.864;12.186;2023-04-02T16:19:51;8.60;99.90
5621;DHT22;2832;50.864;12.186;2023-04-02T16:22:22;8.70;99.90
5621;DHT22;2832;50.864;12.186;2023-04-02T16:24:59;8.80;99.90
5621;DHT22;2832;50.864;12.186;2023-04-02T16:27:34;8.90;99.90
5621;DHT22;2832;50.864;12.186;2023-04-02T16:30:22;9.00;99.90
5621;DHT22;2832;50.864;12.186;2023-04-02T16:33:06;8.90;99.90
5621;DHT22;2832;50.864;12.186;2023-04-02T16:35:47;8.90;99.90
5621;DHT22;2832;50.864;12.186;2023-04-02T16:38:34;9.00;99.90
5621;DHT22;2832;50.864;12.186;2023-04-02T16:41:13;9.10;99.90
5621;DHT22;2832;50.864;12.186;2023-04-02T16:43:48;9.10;99.90
5621;DHT22;2832;50.864;12.186;2023-04-02T16:46:25;9.10;99.90
5621;DHT22;2832;50.864;12.186;2023-04-02T16:49:08;9.10;99.90
5621;DHT22;2832;50.864;12.186;2023-04-02T16:51:56;8.90;99.90
5621;DHT22;2832;50.864;12.186;2023-04-02T16:54:33;8.90;99.90
5621;DHT22;2832;50.864;12.186;2023-04-02T16:57:17;8.90;99.90
5621;DHT22;2832;50.864;12.186;2023-04-02T16:59:55;8.80;99.90
5621;DHT22;2832;50.864;12.186;2023-04-02T17:02:36;8.90;99.90
5621;DHT22;2832;50.864;12.186;2023-04-02T17:05:19;8.70;99.90
5621;DHT22;2832;50.864;12.186;2023-04-02T17:07:56;8.60;99.90
5621;DHT22;2832;50.864;12.186;2023-04-02T17:10:36;8.60;99.90
5621;DHT22;2832;50.864;12.186;2023-04-02T17:13:25;8.80;99.90
5621;DHT22;2832;50.864;12.186;2023-04-02T17:16:02;8.80;99.90
5621;DHT22;2832;50.864;12.186;2023-04-02T17:18:32;8.90;99.90
5621;DHT22;2832;50.864;12.186;2023-04-02T17:21:03;8.90;99.90
5621;DHT22;2832;50.864;12.186;2023-04-02T17:23:42;8.90;99.90
5621;DHT22;2832;50.864;12.186;2023-04-02T17:26:13;9.00;99.90
5621;DHT22;2832;50.864;12.186;2023-04-02T17:28:43;8.90;99.90
5621;DHT22;2832;50.864;12.186;2023-04-02T17:31:16;8.90;99.90
5621;DHT22;2832;50.864;12.186;2023-04-02T17:33:45;8.70;99.90
5621;DHT22;2832;50.864;12.186;2023-04-02T17:36:28;8.70;99.90
5621;DHT22;2832;50.864;12.186;2023-04-02T17:39:16;8.90;99.90
5621;DHT22;2832;50.864;12.186;2023-04-02T17:41:57;8.70;99.90